Tiempo atmosférico en la estación meteorológica de Binissalem, Illes Balears (105 m.)



Fecha
DESCASC
Temp. máxima en grados centígrados (hora)
DESCASC
Temp. mínima en grados centígrados (hora)
DESCASC
Temp. media en grados centígrados
DESCASC
Racha de viento máxima en m/sg (hora)
DESCASC
Velocidad máxima media en intervalos de 10 minutos(hora)
DESCASC
Precipitaciones diarias en mm
DESCASC
Precipitaciones de 00:00 a 06:00 en mm
DESCASC
Precipitaciones de 06:00 a 12:00 en mm
DESCASC
Precipitaciones de 12:00 a 18:00 en mm
DESCASC
Precipitaciones de 18:00 a 24:00 en mm
DESCASC
26-04-2019 21 (18:10) 10.2 (00:00) 15.6 9.17 (16:10) 6.11 (16:10) 0 0 0 0 0
27-04-2019 23.2 (17:30) 5.2 (00:00) 14.2 11.39 (16:00) 5.83 (14:50) 0 0 0 0 0
28-04-2019 21.6 (13:00) 5.8 (00:00) 13.7 7.78 (13:30) 4.44 (14:10) 0 0 0 0 0
29-04-2019 20.4 (14:50) 10.6 (00:00) 15.5 7.5 (14:40) 4.44 (13:30) 0 0 0 0 0
30-04-2019 20.9 (13:10) 7.3 (00:00) 14.1 8.89 (13:40) 5.28 (15:20) 0 0 0 0 0
01-05-2019 23.2 (15:00) 5.1 (00:00) 14.2 9.17 (15:20) 5.28 (15:50) 0 0 0 0 0
02-05-2019 20.8 (15:10) 8.9 (05:10) 14.8 6.67 (18:10) 3.89 (18:10) 0 0 0 0 0
03-05-2019 20.9 (13:00) 6.7 (00:00) 13.8 6.94 (12:50) 4.17 (11:20) 12.6 0 0 0 12.6
04-05-2019 20.2 (15:50) 8.8 (00:00) 14.5 8.33 (12:10) 5.28 (20:30) 4.6 4.4 0.2 0 0
05-05-2019 19.1 (16:40) 11.1 (00:00) 15.1 12.5 (16:20) 7.78 (15:00) 0 0 0 0 0
06-05-2019 20.9 (14:20) 7.8 (00:00) 14.3 10.28 (17:10) 5 (17:40) 0 0 0 0 0
07-05-2019 22.7 (15:30) 8.5 (00:00) 15.6 7.78 (13:20) 5 (16:20) 0 0 0 0 0
08-05-2019 23.8 (16:50) 14.1 (00:00) 18.9 11.67 (17:40) 8.33 (17:40) 0 0 0 0 0
09-05-2019 25.7 (15:30) 15.3 (00:00) 20.5 11.94 (03:00) 6.94 (05:50) 0 0 0 0 0
10-05-2019 29.6 (15:20) 14.7 (00:00) 22.2 12.5 (13:40) 5.83 (05:00) 0 0 0 0 0
11-05-2019 26.9 (12:50) 13.7 (00:00) 20.3 13.33 (16:20) 7.78 (15:10) 0 0 0 0 0
12-05-2019 23.5 (18:40) 10.3 (00:00) 16.9 10.28 (15:30) 7.5 (16:00) 0 0 0 0 0
13-05-2019 20.9 (12:30) 7.9 (00:00) 14.4 11.39 (14:00) 7.22 (13:30) 0 0 0 0 0
14-05-2019 24.5 (16:40) 8.6 (00:00) 16.6 10 (17:50) 6.67 (18:00) 0 0 0 0 0
15-05-2019 23.1 (12:00) 9.8 (00:00) 16.5 10.83 (17:00) 6.11 (17:00) 0 0 0 0 0
16-05-2019 22.7 (16:20) 7 (00:00) 14.9 8.61 (14:50) 5.56 (16:40) 0 0 0 0 0
17-05-2019 20.1 (11:20) 11.7 (00:00) 15.9 17.78 (15:30) 11.39 (15:30) 0.2 0 0.2 0 0
18-05-2019 21.8 (16:50) 11.4 (00:00) 16.6 15 (18:10) 6.94 (18:10) 0.4 0 0.4 0 0
19-05-2019 20.6 (15:00) 11.3 (00:00) 16 12.78 (16:10) 7.78 (16:10) 0 0 0 0 0
20-05-2019 23.7 (15:20) 8.5 (06:30) 16.1 11.94 (14:00) 6.94 (18:10) 0 0 0 0 0
21-05-2019 25.5 (12:50) 8.5 (06:50) 17 9.17 (13:20) 7.5 (13:30) 0 0 0 0 0
22-05-2019 27 (15:20) 9.5 (00:00) 18.3 9.17 (16:40) 6.39 (16:40) 0 0 0 0 0
23-05-2019 26.5 (14:10) 10.7 (00:00) 18.6 8.89 (16:40) 6.11 (17:30) 0 0 0 0 0
24-05-2019 21.6 (11:50) 14.5 (00:00) 18.1 3.89 (19:20) 2.5 (12:40) 1.2 0 0 1 0.2
25-05-2019 19.5 (17:50) 14.5 (00:00) 17 8.61 (17:30) 5 (14:40) 0.2 0 0 0.2 0

Gráficas

Temp. máximas Temp. mínimas Temp. medias Precipitaciones Rachas de viento máximas Velocidades máximas media en intervalos de 10 minutos

Datos horarios

Fecha y hora oficial Temperatura (ºC) Velocidad del viento (km/h) Dirección del viento Racha (km/h) Dirección de racha Precipitación (mm) Presión (hPa) Tendencia (hPa) Humedad (%)
2019-05-25 23:00:00 16.3 4 Sudoeste 6 Sudoeste 0 -- -- 81
2019-05-25 22:00:00 16.8 2 Norte 14 Nordeste 0 -- -- 77
2019-05-25 21:00:00 17.2 7 Nordeste 22 Nordeste 0 -- -- 75
2019-05-25 20:00:00 17.8 13 Nordeste 26 Este 0 -- -- 72
2019-05-25 19:00:00 18.3 11 Nordeste 30 Nordeste 0 -- -- 71
2019-05-25 18:00:00 19.3 14 Nordeste 31 Nordeste 0 -- -- 68
2019-05-25 17:00:00 18.3 15 Nordeste 28 Nordeste 0 -- -- 72
2019-05-25 16:00:00 17.7 15 Nordeste 26 Nordeste 0 -- -- 77
2019-05-25 15:00:00 17.3 13 Nordeste 27 Nordeste 0 -- -- 83
2019-05-25 14:00:00 17.1 12 Nordeste 24 Este 0.2 -- -- 90
2019-05-25 13:00:00 16.9 12 Nordeste 22 Nordeste 0 -- -- 85
2019-05-25 12:00:00 17.1 13 Nordeste 23 Nordeste 0 -- -- 81
2019-05-25 11:00:00 15.6 12 Nordeste 24 Nordeste 0 -- -- 89
2019-05-25 10:00:00 15.9 13 Nordeste 22 Este 0 -- -- 88
2019-05-25 09:00:00 15.4 10 Nordeste 17 Nordeste 0 -- -- 90
2019-05-25 08:00:00 14.8 6 Nordeste 15 Nordeste 0 -- -- 92
2019-05-25 07:00:00 14.5 6 Nordeste 14 Nordeste 0 -- -- 92
2019-05-25 06:00:00 14.7 8 Nordeste 12 Nordeste 0 -- -- 92
2019-05-25 05:00:00 14.6 4 Norte 8 Nordeste 0 -- -- 92
2019-05-25 04:00:00 14.8 2 Sudeste 6 Norte 0 -- -- 90
2019-05-25 03:00:00 14.6 2 Noroeste 5 Sudoeste 0 -- -- 90
2019-05-25 02:00:00 14.6 0 Calma 8 Norte 0 -- -- 88
2019-05-25 01:00:00 14.7 5 Norte 8 Norte 0 -- -- 86
2019-05-25 00:00:00 14.5 6 Nordeste 12 Nordeste 0 -- -- 84
2019-05-24 23:00:00 14.7 5 Nordeste 9 Nordeste 0 -- -- 87
2019-05-24 22:00:00 14.7 4 Nordeste 8 Norte 0 -- -- 85
2019-05-24 21:00:00 15.1 4 Nordeste 8 Nordeste 0 -- -- 81
2019-05-24 20:00:00 15.2 4 Nordeste 14 Nordeste 0 -- -- 78
2019-05-24 19:00:00 15.5 7 Nordeste 14 Nordeste 0.2 -- -- 81
2019-05-24 18:00:00 15.5 6 Norte 9 Nordeste 0.4 -- -- 75
2019-05-24 17:00:00 16.5 3 Noroeste 11 Noroeste 0.2 -- -- 75
2019-05-24 16:00:00 17.7 4 Noroeste 7 Noroeste 0.2 -- -- 65
2019-05-24 15:00:00 18.5 4 Oeste 10 Noroeste 0.2 -- -- 61
2019-05-24 14:00:00 18.4 9 Noroeste 12 Noroeste 0 -- -- 65
2019-05-24 13:00:00 17 7 Norte 13 Noroeste 0 -- -- 76
2019-05-24 12:00:00 21.5 5 Noroeste 9 Sudoeste 0 -- -- 36
2019-05-24 11:00:00 20.8 6 Oeste 10 Sudoeste 0 -- -- 42
2019-05-24 10:00:00 19.7 5 Oeste 7 Este 0 -- -- 56
2019-05-24 09:00:00 19.1 3 Sudeste 4 Sur 0 -- -- 61
2019-05-24 08:00:00 17.4 2 Noroeste 4 Noroeste 0 -- -- 60
2019-05-24 07:00:00 15 0 Calma 7 Noroeste 0 -- -- 75
2019-05-24 06:00:00 14.9 7 Noroeste 10 Noroeste 0 -- -- 70
2019-05-24 05:00:00 14.9 2 Nordeste 6 Oeste 0 -- -- 54
2019-05-24 04:00:00 14.8 5 Sudoeste 9 Sudoeste 0 -- -- 50
2019-05-24 03:00:00 14.6 5 Oeste 9 Sudoeste 0 -- -- 52
2019-05-24 02:00:00 15.2 4 Oeste 7 Sudoeste 0 -- -- 50
2019-05-24 01:00:00 15.3 5 Noroeste 9 Oeste 0 -- -- 49
2019-05-24 00:00:00 16.4 8 Oeste 10 Oeste 0 -- -- 48
2019-05-23 23:00:00 17.1 5 Sudoeste 8 Oeste 0 -- -- 52
2019-05-23 22:00:00 18.2 6 Oeste 10 Oeste 0 -- -- 49
2019-05-23 21:00:00 20.1 8 Oeste 22 Sudoeste 0 -- -- 41
2019-05-23 20:00:00 21.7 12 Oeste 26 Oeste 0 -- -- 36
2019-05-23 19:00:00 22.7 16 Oeste 28 Oeste 0 -- -- 31
2019-05-23 18:00:00 24.2 20 Sudoeste 30 Sudoeste 0 -- -- 26
2019-05-23 17:00:00 25.8 19 Oeste 32 Oeste 0 -- -- 24
2019-05-23 16:00:00 26.4 19 Sudoeste 30 Oeste 0 -- -- 24
2019-05-23 15:00:00 26.4 20 Sudoeste 31 Sudoeste 0 -- -- 25
2019-05-23 14:00:00 26.2 20 Sudoeste 31 Sudoeste 0 -- -- 21
2019-05-23 13:00:00 25.7 17 Sudoeste 27 Oeste 0 -- -- 23
2019-05-23 12:00:00 25 17 Sudoeste 26 Sudoeste 0 -- -- 27
2019-05-23 11:00:00 24.2 16 Sudoeste 24 Sudoeste 0 -- -- 30
2019-05-23 10:00:00 22.5 13 Oeste 21 Sudoeste 0 -- -- 33
2019-05-23 09:00:00 20.4 13 Oeste 18 Oeste 0 -- -- 38
2019-05-23 08:00:00 15.9 7 Sudoeste 13 Oeste 0 -- -- 70
2019-05-23 07:00:00 11.7 6 Sudoeste 12 Oeste 0 -- -- 75
2019-05-23 06:00:00 10.9 10 Oeste 12 Oeste 0 -- -- 77
2019-05-23 05:00:00 11.3 7 Sudoeste 12 Oeste 0 -- -- 80
2019-05-23 04:00:00 12.5 5 Sudoeste 12 Oeste 0 -- -- 81
2019-05-23 03:00:00 13 6 Sudoeste 10 Sudoeste 0 -- -- 79
2019-05-23 02:00:00 13.5 8 Sudoeste 10 Sudoeste 0 -- -- 82
2019-05-23 01:00:00 15.1 8 Oeste 13 Oeste 0 -- -- 79
2019-05-23 00:00:00 15.1 4 Oeste 9 Oeste 0 -- -- 75
2019-05-22 23:00:00 16.5 8 Oeste 14 Oeste 0 -- -- 70
2019-05-22 22:00:00 17.8 10 Oeste 19 Oeste 0 -- -- 65
2019-05-22 21:00:00 19.6 13 Oeste 21 Oeste 0 -- -- 48
2019-05-22 20:00:00 22.5 9 Oeste 24 Sudoeste 0 -- -- 38
2019-05-22 19:00:00 23.9 14 Oeste 25 Sudoeste 0 -- -- 29
2019-05-22 18:00:00 24.6 17 Sudoeste 26 Sudoeste 0 -- -- 28
2019-05-22 17:00:00 24.9 19 Sudoeste 33 Sudoeste 0 -- -- 32
2019-05-22 16:00:00 26.7 12 Sudoeste 26 Sudoeste 0 -- -- 32
2019-05-22 15:00:00 26.2 12 Este 28 Noroeste 0 -- -- 32
2019-05-22 14:00:00 26.2 9 Oeste 26 Sur 0 -- -- 28
2019-05-22 13:00:00 25.3 7 Nordeste 17 Este 0 -- -- 31
2019-05-22 12:00:00 24.1 6 Nordeste 14 Nordeste 0 -- -- 35
2019-05-22 11:00:00 22.1 4 Este 11 Este 0 -- -- 39
2019-05-22 10:00:00 19.9 3 Sur 8 Sur 0 -- -- 49
2019-05-22 09:00:00 18 2 Este 5 Sudeste 0 -- -- 57
2019-05-22 08:00:00 14.1 4 Sudoeste 5 Sudoeste 0 -- -- 70
2019-05-22 07:00:00 10.3 0 Calma 4 Sudoeste 0 -- -- 82
2019-05-22 06:00:00 9.5 3 Oeste 5 Sudoeste 0 -- -- 80
2019-05-22 05:00:00 10 0 Calma 7 Oeste 0 -- -- 78
2019-05-22 04:00:00 10.1 5 Oeste 8 Oeste 0 -- -- 78
2019-05-22 03:00:00 10.9 0 Calma 3 Noroeste 0 -- -- 75
2019-05-22 02:00:00 12.4 0 Calma 10 Oeste 0 -- -- 69
2019-05-22 01:00:00 14.2 10 Sudoeste 13 Sudoeste 0 -- -- 67
2019-05-22 00:00:00 15.9 7 Oeste 10 Oeste 0 -- -- 73
2019-05-21 23:00:00 17 6 Sudoeste 10 Oeste 0 -- -- 66
2019-05-21 22:00:00 18 6 Sudoeste 12 Oeste 0 -- -- 58
2019-05-21 21:00:00 19 6 Oeste 21 Sudoeste 0 -- -- 48
2019-05-21 20:00:00 21 10 Sudeste 21 Sudoeste 0 -- -- 40
2019-05-21 19:00:00 22.2 2 Nordeste 8 Sudoeste 0 -- -- 36
2019-05-21 18:00:00 21.9 4 Oeste 7 Sudoeste 0 -- -- 33
2019-05-21 17:00:00 20.9 4 Oeste 14 Sudoeste 0 -- -- 40
2019-05-21 16:00:00 20.1 11 Sur 27 Sudoeste 0 -- -- 53
2019-05-21 15:00:00 21 17 Sudoeste 25 Sudoeste 0 -- -- 42
2019-05-21 14:00:00 21.3 21 Sudoeste 33 Sudoeste 0 -- -- 43
2019-05-21 13:00:00 24.9 20 Sudoeste 32 Sur 0 -- -- 31
2019-05-21 12:00:00 24.3 10 Sur 24 Sudeste 0 -- -- 32
2019-05-21 11:00:00 22.7 3 Este 13 Este 0 -- -- 37
2019-05-21 10:00:00 19.5 3 Sudoeste 7 Sudoeste 0 -- -- 51
2019-05-21 09:00:00 16.7 0 Calma 4 Sur 0 -- -- 64
2019-05-21 08:00:00 11.3 2 Sur 3 Noroeste 0 -- -- 84
2019-05-21 07:00:00 8.6 0 Calma 7 Sudoeste 0 -- -- 85
2019-05-21 06:00:00 9 3 Oeste 5 Oeste 0 -- -- 83
2019-05-21 05:00:00 9.6 3 Norte 6 Oeste 0 -- -- 83
2019-05-21 04:00:00 9.3 3 Oeste 8 Sudoeste 0 -- -- 81
2019-05-21 03:00:00 10.1 3 Norte 5 Norte 0 -- -- 80
2019-05-21 02:00:00 11.3 4 Nordeste 6 Nordeste 0 -- -- 77
2019-05-21 01:00:00 12.8 2 Norte 13 Norte 0 -- -- 72
2019-05-21 00:00:00 13.6 7 Norte 10 Norte 0 -- -- 71
2019-05-20 23:00:00 14.5 5 Nordeste 12 Norte 0 -- -- 67
2019-05-20 22:00:00 16.1 5 Norte 17 Sudoeste 0 -- -- 57
2019-05-20 21:00:00 17.8 14 Sudoeste 24 Sudoeste 0 -- -- 55
2019-05-20 20:00:00 20.4 18 Sudoeste 26 Sudoeste 0 -- -- 43
2019-05-20 19:00:00 21.9 19 Sudoeste 33 Sur 0 -- -- 38
2019-05-20 18:00:00 23.2 18 Sudoeste 33 Sudoeste 0 -- -- 34
2019-05-20 17:00:00 23.7 12 Oeste 29 Oeste 0 -- -- 25
2019-05-20 16:00:00 23.1 18 Noroeste 37 Sudoeste 0 -- -- 27
2019-05-20 15:00:00 23.4 22 Sudoeste 38 Sudoeste 0 -- -- 28
2019-05-20 14:00:00 23 23 Sudoeste 43 Sudoeste 0 -- -- 30
2019-05-20 13:00:00 22.7 19 Sudoeste 33 Oeste 0 -- -- 33
2019-05-20 12:00:00 22.4 17 Oeste 30 Sudoeste 0 -- -- 35
2019-05-20 11:00:00 21.1 16 Noroeste 28 Noroeste 0 -- -- 35
2019-05-20 10:00:00 20 14 Oeste 27 Norte 0 -- -- 39
2019-05-20 09:00:00 17.8 16 Noroeste 26 Noroeste 0 -- -- 46
2019-05-20 08:00:00 13.6 4 Noroeste 9 Norte 0 -- -- 82
2019-05-20 07:00:00 8.8 0 Calma 8 Sur 0 -- -- 90
2019-05-20 06:00:00 9 0 Calma 7 Sudoeste 0 -- -- 89
2019-05-20 05:00:00 9.3 4 Oeste 8 Noroeste 0 -- -- 88
2019-05-20 04:00:00 9.6 4 Sudoeste 6 Sur 0 -- -- 82
2019-05-20 03:00:00 10.6 2 Sur 8 Oeste 0 -- -- 80
2019-05-20 02:00:00 12 7 Oeste 9 Oeste 0 -- -- 76
2019-05-20 01:00:00 12.9 4 Sudeste 6 Este 0 -- -- 74
2019-05-20 00:00:00 13 3 Este 6 Este 0 -- -- 69
2019-05-19 23:00:00 13.4 2 Este 9 Sudoeste 0 -- -- 66
2019-05-19 22:00:00 14.9 8 Sudoeste 9 Sudoeste 0 -- -- 58
2019-05-19 21:00:00 16.5 0 Calma 21 Norte 0 -- -- 53
2019-05-19 20:00:00 18.1 9 Noroeste 27 Norte 0 -- -- 48
2019-05-19 19:00:00 18.6 14 Noroeste 40 Noroeste 0 -- -- 45
2019-05-19 18:00:00 19.3 22 Noroeste 37 Oeste 0 -- -- 43
2019-05-19 17:00:00 19.4 19 Noroeste 46 Oeste 0 -- -- 42
2019-05-19 16:00:00 19 26 Noroeste 43 Noroeste 0 -- -- 41
2019-05-19 15:00:00 20.6 21 Oeste 42 Sudoeste 0 -- -- 40
2019-05-19 14:00:00 20.2 24 Oeste 41 Sudoeste 0 -- -- 40
2019-05-19 13:00:00 19.7 19 Oeste 30 Sudoeste 0 -- -- 41
2019-05-19 12:00:00 18 18 Noroeste 30 Noroeste 0 -- -- 47
2019-05-19 11:00:00 17.9 14 Noroeste 37 Noroeste 0 -- -- 49
2019-05-19 10:00:00 16.7 20 Noroeste 35 Noroeste 0 -- -- 51
2019-05-19 09:00:00 15.9 22 Noroeste 36 Noroeste 0 -- -- 55
2019-05-19 08:00:00 15.1 6 Oeste 14 Oeste 0 -- -- 60
2019-05-19 07:00:00 12.4 5 Oeste 15 Noroeste 0 -- -- 69
2019-05-19 06:00:00 12.5 5 Oeste 12 Sudoeste 0 -- -- 73
2019-05-19 05:00:00 12.7 8 Sudoeste 18 Oeste 0 -- -- 78
2019-05-19 04:00:00 13.6 10 Oeste 22 Oeste 0 -- -- 76
2019-05-19 03:00:00 13.5 13 Oeste 22 Oeste 0 -- -- 71
2019-05-19 02:00:00 13.4 13 Oeste 19 Oeste 0 -- -- 66
2019-05-19 01:00:00 11.5 9 Oeste 12 Oeste 0 -- -- 70
2019-05-19 00:00:00 11.5 6 Noroeste 8 Noroeste 0 -- -- 75
2019-05-18 23:00:00 13 3 Noroeste 6 Oeste 0 -- -- 68
2019-05-18 22:00:00 14.9 4 Nordeste 9 Nordeste 0 -- -- 62
2019-05-18 21:00:00 16.9 5 Nordeste 13 Nordeste 0 -- -- 54
2019-05-18 20:00:00 18.1 5 Este 20 Nordeste 0 -- -- 50
2019-05-18 19:00:00 19.4 15 Nordeste 54 Oeste 0 -- -- 47
2019-05-18 18:00:00 21.5 13 Sur 31 Noroeste 0 -- -- 33
2019-05-18 17:00:00 21.8 10 Oeste 21 Norte 0 -- -- 31
2019-05-18 16:00:00 20.8 12 Noroeste 29 Norte 0 -- -- 33
2019-05-18 15:00:00 21.4 15 Noroeste 26 Norte 0 -- -- 35
2019-05-18 14:00:00 19.8 11 Sudoeste 23 Oeste 0 -- -- 41
2019-05-18 13:00:00 19.1 16 Oeste 27 Oeste 0 -- -- 46
2019-05-18 12:00:00 18.7 6 Oeste 19 Noroeste 0 -- -- 48
2019-05-18 11:00:00 18.7 6 Sudeste 13 Oeste 0 -- -- 51
2019-05-18 10:00:00 17 4 Noroeste 13 Sudoeste 0 -- -- 58
2019-05-18 09:00:00 15.3 5 Sur 8 Sudoeste 0.2 -- -- 77
2019-05-18 08:00:00 13.2 3 Nordeste 15 Nordeste 0.2 -- -- 90
2019-05-18 07:00:00 11.5 6 Norte 10 Norte 0 -- -- 90
2019-05-18 06:00:00 12.7 2 Este 8 Este 0 -- -- 85
2019-05-18 05:00:00 12.9 2 Nordeste 6 Sudoeste 0 -- -- 81
2019-05-18 04:00:00 12.7 3 Sudoeste 6 Oeste 0 -- -- 82
2019-05-18 03:00:00 12.2 3 Noroeste 10 Este 0 -- -- 82
2019-05-18 02:00:00 12.3 3 Sudeste 9 Este 0 -- -- 80
2019-05-18 01:00:00 11.9 9 Sudoeste 12 Sudoeste 0 -- -- 80
2019-05-18 00:00:00 11.8 2 Noroeste 10 Sudeste 0 -- -- 80
2019-05-17 23:00:00 12.9 6 Este 13 Noroeste 0 -- -- 72
2019-05-17 22:00:00 14.7 8 Oeste 15 Noroeste 0 -- -- 67
2019-05-17 21:00:00 15.6 9 Noroeste 15 Noroeste 0 -- -- 62
2019-05-17 20:00:00 16.7 8 Noroeste 30 Noroeste 0 -- -- 63
2019-05-17 19:00:00 16.5 19 Noroeste 32 Noroeste 0 -- -- 62
2019-05-17 18:00:00 15.9 19 Noroeste 44 Oeste 0 -- -- 65
2019-05-17 17:00:00 16.8 21 Noroeste 53 Noroeste 0 -- -- 59
2019-05-17 16:00:00 17.3 30 Oeste 64 Oeste 0 -- -- 56
2019-05-17 15:00:00 18 32 Noroeste 58 Noroeste 0 -- -- 52
2019-05-17 14:00:00 17 27 Oeste 53 Oeste 0 -- -- 54
2019-05-17 13:00:00 18.2 28 Noroeste 60 Noroeste 0 -- -- 57
2019-05-17 12:00:00 18.9 24 Noroeste 47 Oeste 0.2 -- -- 62
2019-05-17 11:00:00 20 20 Sudoeste 31 Sudoeste 0 -- -- 64
2019-05-17 10:00:00 17.9 11 Sudoeste 19 Oeste 0 -- -- 74
2019-05-17 09:00:00 16.3 5 Sudoeste 9 Oeste 0 -- -- 78
2019-05-17 08:00:00 14.8 0 Calma 9 Noroeste 0 -- -- 79
2019-05-17 07:00:00 12.9 3 Noroeste 9 Norte 0 -- -- 78
2019-05-17 06:00:00 12.6 7 Norte 11 Norte 0 -- -- 73
2019-05-17 05:00:00 12.6 5 Norte 11 Norte 0 -- -- 73
2019-05-17 04:00:00 12.4 4 Nordeste 10 Noroeste 0 -- -- 79
2019-05-17 03:00:00 12.6 5 Norte 14 Norte 0 -- -- 84
2019-05-17 02:00:00 13.5 5 Noroeste 9 Noroeste 0 -- -- 81
2019-05-17 01:00:00 13.9 7 Noroeste 10 Noroeste 0 -- -- 80
2019-05-17 00:00:00 13.4 3 Noroeste 6 Noroeste 0 -- -- 78
2019-05-16 23:00:00 14 2 Noroeste 7 Sudeste 0 -- -- 73
2019-05-16 22:00:00 15.1 5 Sudeste 20 Sudeste 0 -- -- 68
2019-05-16 21:00:00 16.6 11 Sudeste 21 Sudeste 0 -- -- 60
2019-05-16 20:00:00 19.1 13 Sur 19 Sur 0 -- -- 50
2019-05-16 19:00:00 20.6 14 Sur 24 Sudoeste 0 -- -- 45
2019-05-16 18:00:00 22 14 Sudoeste 30 Oeste 0 -- -- 39
2019-05-16 17:00:00 22.2 20 Oeste 31 Oeste 0 -- -- 41
2019-05-16 16:00:00 22.5 15 Sudoeste 28 Sudoeste 0 -- -- 37
2019-05-16 15:00:00 22.2 15 Oeste 31 Oeste 0 -- -- 35
2019-05-16 14:00:00 21.8 15 Sudoeste 28 Sudoeste 0 -- -- 34
2019-05-16 13:00:00 21 11 Sur 24 Sudoeste 0 -- -- 47
2019-05-16 12:00:00 20.5 12 Sudoeste 23 Noroeste 0 -- -- 49
2019-05-16 11:00:00 19.2 8 Sudoeste 23 Sudoeste 0 -- -- 51
2019-05-16 10:00:00 17.2 11 Sur 17 Sur 0 -- -- 59
2019-05-16 09:00:00 15.5 5 Sur 9 Sur 0 -- -- 64
2019-05-16 08:00:00 10.4 2 Sur 4 Oeste 0 -- -- 79
2019-05-16 07:00:00 7 0 Calma 4 Sudoeste 0 -- -- 85
2019-05-16 06:00:00 7.4 3 Noroeste 5 Noroeste 0 -- -- 84
2019-05-16 05:00:00 7.7 3 Sudoeste 6 Sudoeste 0 -- -- 84
2019-05-16 04:00:00 8.7 3 Oeste 5 Oeste 0 -- -- 84
2019-05-16 03:00:00 9.3 2 Noroeste 8 Noroeste 0 -- -- 80
2019-05-16 02:00:00 9.8 5 Noroeste 7 Norte 0 -- -- 73
2019-05-16 01:00:00 10.9 0 Calma 6 Nordeste 0 -- -- 79
2019-05-16 00:00:00 12.1 6 Norte 9 Norte 0 -- -- 76
2019-05-15 23:00:00 12.9 7 Este 10 Nordeste 0 -- -- 72
2019-05-15 22:00:00 14.1 7 Este 12 Este 0 -- -- 64
2019-05-15 21:00:00 16 7 Nordeste 28 Nordeste 0 -- -- 44
2019-05-15 20:00:00 18 18 Nordeste 35 Nordeste 0 -- -- 36
2019-05-15 19:00:00 19.2 19 Nordeste 36 Nordeste 0 -- -- 37
2019-05-15 18:00:00 20.3 19 Este 37 Este 0 -- -- 41
2019-05-15 17:00:00 20.6 22 Este 39 Este 0 -- -- 53
2019-05-15 16:00:00 21.8 20 Este 35 Este 0 -- -- 47
2019-05-15 15:00:00 22.1 20 Este 32 Este 0 -- -- 45
2019-05-15 14:00:00 22.3 18 Este 37 Este 0 -- -- 47
2019-05-15 13:00:00 22.5 19 Este 30 Este 0 -- -- 52
2019-05-15 12:00:00 23.1 11 Nordeste 26 Este 0 -- -- 47
2019-05-15 11:00:00 22.3 5 Este 17 Sudoeste 0 -- -- 45
2019-05-15 10:00:00 19.9 11 Sudoeste 18 Oeste 0 -- -- 56
2019-05-15 09:00:00 17.9 10 Oeste 17 Oeste 0 -- -- 66
2019-05-15 08:00:00 13.6 4 Sudoeste 7 Oeste 0 -- -- 65
2019-05-15 07:00:00 10.4 6 Sudoeste 12 Sudoeste 0 -- -- 74
2019-05-15 06:00:00 10.2 12 Sudoeste 14 Sudoeste 0 -- -- 76
2019-05-15 05:00:00 11.3 8 Sudoeste 15 Sudoeste 0 -- -- 66
2019-05-15 04:00:00 11.1 8 Oeste 13 Oeste 0 -- -- 64
2019-05-15 03:00:00 10.5 9 Sudoeste 11 Oeste 0 -- -- 72
2019-05-15 02:00:00 11.6 8 Sudoeste 10 Oeste 0 -- -- 68
2019-05-15 01:00:00 12.1 8 Sudoeste 10 Sudoeste 0 -- -- 70
2019-05-15 00:00:00 13.8 9 Oeste 14 Oeste 0 -- -- 73
2019-05-14 23:00:00 15.1 10 Oeste 14 Oeste 0 -- -- 68
2019-05-14 22:00:00 16.1 10 Oeste 19 Oeste 0 -- -- 61
2019-05-14 21:00:00 17.7 14 Sudoeste 24 Sudoeste 0 -- -- 46
2019-05-14 20:00:00 20.1 20 Sudoeste 32 Sudoeste 0 -- -- 36
2019-05-14 19:00:00 21.5 22 Sudoeste 33 Sudoeste 0 -- -- 34
2019-05-14 18:00:00 22.5 24 Sudoeste 36 Sudoeste 0 -- -- 33
2019-05-14 17:00:00 24.3 20 Sur 30 Sur 0 -- -- 32
2019-05-14 16:00:00 23.8 12 Este 26 Este 0 -- -- 32
2019-05-14 15:00:00 22.9 12 Este 30 Este 0 -- -- 33
2019-05-14 14:00:00 23 14 Este 27 Este 0 -- -- 33
2019-05-14 13:00:00 22.5 14 Este 32 Este 0 -- -- 37
2019-05-14 12:00:00 21.9 18 Nordeste 31 Nordeste 0 -- -- 33
2019-05-14 11:00:00 20.8 20 Nordeste 35 Nordeste 0 -- -- 38
2019-05-14 10:00:00 20.1 18 Nordeste 32 Nordeste 0 -- -- 42
2019-05-14 09:00:00 17.6 4 Noroeste 11 Oeste 0 -- -- 49
2019-05-14 08:00:00 13.1 5 Noroeste 10 Sudoeste 0 -- -- 64
2019-05-14 07:00:00 8.7 3 Noroeste 9 Sudoeste 0 -- -- 74
2019-05-14 06:00:00 9.4 4 Oeste 9 Este 0 -- -- 69
2019-05-14 05:00:00 11.8 6 Noroeste 19 Oeste 0 -- -- 60
2019-05-14 04:00:00 8.7 5 Oeste 9 Noroeste 0 -- -- 74
2019-05-14 03:00:00 9.2 5 Oeste 8 Oeste 0 -- -- 73
2019-05-14 02:00:00 9.7 5 Oeste 9 Noroeste 0 -- -- 72
2019-05-14 01:00:00 10 4 Noroeste 8 Oeste 0 -- -- 72
2019-05-14 00:00:00 11 5 Oeste 8 Oeste 0 -- -- 70
2019-05-13 23:00:00 12.2 3 Noroeste 5 Noroeste 0 -- -- 67
2019-05-13 22:00:00 13.6 4 Noroeste 11 Nordeste 0 -- -- 64
2019-05-13 21:00:00 16 7 Nordeste 21 Nordeste 0 -- -- 55
2019-05-13 20:00:00 18.2 13 Nordeste 30 Este 0 -- -- 47
2019-05-13 19:00:00 19.4 15 Nordeste 30 Este 0 -- -- 39
2019-05-13 18:00:00 19.8 17 Nordeste 32 Este 0 -- -- 38
2019-05-13 17:00:00 20.9 18 Nordeste 35 Nordeste 0 -- -- 32
2019-05-13 16:00:00 20.5 14 Nordeste 38 Nordeste 0 -- -- 34
2019-05-13 15:00:00 20 21 Nordeste 38 Nordeste 0 -- -- 37
2019-05-13 14:00:00 20.2 23 Nordeste 41 Nordeste 0 -- -- 40
2019-05-13 13:00:00 20.4 21 Nordeste 36 Nordeste 0 -- -- 43
2019-05-13 12:00:00 19.2 18 Noroeste 26 Noroeste 0 -- -- 56
2019-05-13 11:00:00 19.3 15 Oeste 31 Oeste 0 -- -- 53
2019-05-13 10:00:00 19.1 18 Noroeste 32 Oeste 0 -- -- 55
2019-05-13 09:00:00 17.7 10 Sudoeste 17 Sudoeste 0 -- -- 61
2019-05-13 08:00:00 11.8 3 Sudoeste 7 Sudoeste 0 -- -- 81
2019-05-13 07:00:00 8 2 Norte 5 Noroeste 0 -- -- 86
2019-05-13 06:00:00 8.3 2 Noroeste 8 Norte 0 -- -- 84
2019-05-13 05:00:00 9.6 2 Sudeste 10 Oeste 0 -- -- 80
2019-05-13 04:00:00 10.9 9 Oeste 12 Noroeste 0 -- -- 75
2019-05-13 03:00:00 11 5 Sudoeste 8 Sudoeste 0 -- -- 76
2019-05-13 02:00:00 11.8 4 Nordeste 11 Norte 0 -- -- 76
2019-05-13 01:00:00 11.8 3 Nordeste 12 Sudoeste 0 -- -- 83
2019-05-13 00:00:00 12.7 6 Noroeste 9 Noroeste 0 -- -- 80
2019-05-12 23:00:00 13.4 6 Noroeste 8 Noroeste 0 -- -- 77
2019-05-12 22:00:00 14.6 3 Norte 11 Nordeste 0 -- -- 71
2019-05-12 21:00:00 16.2 7 Nordeste 22 Este 0 -- -- 66
2019-05-12 20:00:00 17.9 18 Este 35 Sudeste 0 -- -- 61
2019-05-12 19:00:00 22.2 19 Este 30 Este 0 -- -- 42
2019-05-12 18:00:00 23 10 Noroeste 30 Noroeste 0 -- -- 33
2019-05-12 17:00:00 22.7 19 Noroeste 35 Noroeste 0 -- -- 36
2019-05-12 16:00:00 21.9 27 Noroeste 37 Noroeste 0 -- -- 42
2019-05-12 15:00:00 22.8 19 Noroeste 32 Norte 0 -- -- 39
2019-05-12 14:00:00 22.4 14 Noroeste 29 Noroeste 0 -- -- 38
2019-05-12 13:00:00 21.3 19 Noroeste 33 Noroeste 0 -- -- 43
2019-05-12 12:00:00 20.7 17 Noroeste 31 Noroeste 0 -- -- 47
2019-05-12 11:00:00 20 7 Norte 26 Noroeste 0 -- -- 50
2019-05-12 10:00:00 18.9 7 Este 15 Este 0 -- -- 60
2019-05-12 09:00:00 16.9 4 Este 10 Este 0 -- -- 66
2019-05-12 08:00:00 12.3 2 Sudeste 12 Sudoeste 0 -- -- 86
2019-05-12 07:00:00 10.5 6 Sudoeste 8 Sur 0 -- -- 86
2019-05-12 06:00:00 11.3 3 Oeste 9 Sudoeste 0 -- -- 87
2019-05-12 05:00:00 10.5 5 Oeste 8 Sudoeste 0 -- -- 87
2019-05-12 04:00:00 10.8 3 Oeste 8 Noroeste 0 -- -- 84
2019-05-12 03:00:00 11.8 6 Norte 10 Noroeste 0 -- -- 83
2019-05-12 02:00:00 12.2 6 Noroeste 8 Noroeste 0 -- -- 81
2019-05-12 01:00:00 13.2 5 Norte 11 Norte 0 -- -- 80
2019-05-12 00:00:00 13.7 5 Norte 9 Norte 0 -- -- 80
2019-05-11 23:00:00 14.6 5 Norte 17 Nordeste 0 -- -- 77
2019-05-11 22:00:00 15.8 13 Nordeste 27 Nordeste 0 -- -- 71
2019-05-11 21:00:00 16.8 13 Nordeste 33 Nordeste 0 -- -- 65
2019-05-11 20:00:00 19.2 15 Nordeste 31 Nordeste 0 -- -- 60
2019-05-11 19:00:00 20.4 17 Nordeste 33 Nordeste 0 -- -- 60
2019-05-11 18:00:00 21.2 21 Nordeste 36 Nordeste 0 -- -- 60
2019-05-11 17:00:00 22.1 23 Nordeste 48 Nordeste 0 -- -- 55
2019-05-11 16:00:00 22.7 25 Este 45 Nordeste 0 -- -- 53
2019-05-11 15:00:00 23.2 25 Nordeste 44 Nordeste 0 -- -- 54
2019-05-11 14:00:00 24.1 26 Nordeste 39 Nordeste 0 -- -- 57
2019-05-11 13:00:00 26.9 14 Este 28 Este 0 -- -- 53
2019-05-11 12:00:00 25.5 6 Nordeste 13 Sudeste 0 -- -- 56
2019-05-11 11:00:00 23.9 7 Nordeste 14 Este 0 -- -- 66
2019-05-11 10:00:00 21.9 6 Nordeste 12 Este 0 -- -- 72
2019-05-11 09:00:00 19.5 7 Este 12 Este 0 -- -- 78
2019-05-11 08:00:00 16.8 3 Este 5 Sudeste 0 -- -- 92
2019-05-11 07:00:00 14.2 3 Nordeste 5 Nordeste 0 -- -- 91
2019-05-11 06:00:00 14.4 3 Noroeste 6 Norte 0 -- -- 91
2019-05-11 05:00:00 15.5 4 Norte 8 Norte 0 -- -- 91
2019-05-11 04:00:00 15.7 2 Nordeste 5 Este 0 -- -- 91
2019-05-11 03:00:00 16.3 2 Este 5 Sudoeste 0 -- -- 90
2019-05-11 02:00:00 16.9 4 Oeste 9 Oeste 0 -- -- 89
2019-05-11 01:00:00 17.3 4 Oeste 8 Oeste 0 -- -- 87
2019-05-11 00:00:00 17.8 0 Calma 9 Sudoeste 0 -- -- 83
2019-05-10 23:00:00 18.6 8 Sudoeste 14 Oeste 0 -- -- 80
2019-05-10 22:00:00 20.2 9 Sudoeste 15 Sudoeste 0 -- -- 70
2019-05-10 21:00:00 22 8 Sur 10 Sudoeste 0 -- -- 61
2019-05-10 20:00:00 24.9 8 Sudoeste 19 Sudoeste 0 -- -- 51
2019-05-10 19:00:00 26.9 10 Sur 17 Sudeste 0 -- -- 44
2019-05-10 18:00:00 27.9 13 Sudoeste 22 Sudoeste 0 -- -- 44
2019-05-10 17:00:00 28.4 14 Sur 24 Sur 0 -- -- 45
2019-05-10 16:00:00 29.2 18 Sur 28 Sudoeste 0 -- -- 40
2019-05-10 15:00:00 29.5 10 Sudoeste 23 Oeste 0 -- -- 40
2019-05-10 14:00:00 28.9 12 Oeste 45 Oeste 0 -- -- 37
2019-05-10 13:00:00 27.7 15 Sudoeste 26 Sudoeste 0 -- -- 48
2019-05-10 12:00:00 27.1 14 Sudoeste 25 Sudoeste 0 -- -- 52
2019-05-10 11:00:00 25.1 18 Sudoeste 26 Sudoeste 0 -- -- 61
2019-05-10 10:00:00 22.7 18 Sudoeste 25 Sudoeste 0 -- -- 68
2019-05-10 09:00:00 20 13 Sudoeste 23 Sudoeste 0 -- -- 82
2019-05-10 08:00:00 17.4 10 Oeste 27 Sudoeste 0 -- -- 94
2019-05-10 07:00:00 16.4 11 Oeste 35 Sudoeste 0 -- -- 94
2019-05-10 06:00:00 16.3 19 Oeste 30 Sudoeste 0 -- -- 92
2019-05-10 05:00:00 16 21 Sudoeste 29 Sudoeste 0 -- -- 90
2019-05-10 04:00:00 15.7 17 Sudoeste 24 Sudoeste 0 -- -- 85
2019-05-10 03:00:00 15.5 12 Oeste 17 Sudoeste 0 -- -- 74
2019-05-10 02:00:00 14.7 12 Sudoeste 17 Sudoeste 0 -- -- 74
2019-05-10 01:00:00 16.2 11 Sudoeste 19 Sudoeste 0 -- -- 69
2019-05-10 00:00:00 15.9 11 Sudoeste 17 Oeste 0 -- -- 65
2019-05-09 23:00:00 15.6 9 Sudoeste 16 Sudoeste 0 -- -- 59
2019-05-09 22:00:00 16.7 10 Sudoeste 20 Sudoeste 0 -- -- 50
2019-05-09 21:00:00 18 10 Sudoeste 20 Sudoeste 0 -- -- 50
2019-05-09 20:00:00 22.1 7 Sudeste 21 Sudoeste 0 -- -- 46
2019-05-09 19:00:00 23.3 11 Este 20 Nordeste 0 -- -- 45
2019-05-09 18:00:00 23.8 14 Sudoeste 35 Sudoeste 0 -- -- 32
2019-05-09 17:00:00 24.7 21 Sudoeste 31 Sudoeste 0 -- -- 34
2019-05-09 16:00:00 25.4 15 Sudoeste 33 Sudoeste 0 -- -- 33
2019-05-09 15:00:00 25.4 18 Oeste 31 Sudoeste 0 -- -- 28
2019-05-09 14:00:00 24.9 10 Oeste 29 Sudoeste 0 -- -- 30
2019-05-09 13:00:00 24.4 15 Noroeste 23 Noroeste 0 -- -- 30
2019-05-09 12:00:00 23.8 9 Noroeste 22 Noroeste 0 -- -- 29
2019-05-09 11:00:00 22.8 10 Noroeste 23 Noroeste 0 -- -- 33
2019-05-09 10:00:00 21.4 10 Norte 32 Noroeste 0 -- -- 37
2019-05-09 09:00:00 20.9 14 Noroeste 21 Noroeste 0 -- -- 40
2019-05-09 08:00:00 20.1 4 Noroeste 21 Oeste 0 -- -- 45
2019-05-09 07:00:00 18.4 10 Noroeste 34 Noroeste 0 -- -- 59
2019-05-09 06:00:00 19.7 23 Noroeste 41 Noroeste 0 -- -- 58
2019-05-09 05:00:00 21.6 21 Noroeste 35 Noroeste 0 -- -- 47
2019-05-09 04:00:00 21.3 15 Oeste 38 Sudoeste 0 -- -- 49
2019-05-09 03:00:00 21.6 22 Oeste 43 Oeste 0 -- -- 55
2019-05-09 02:00:00 18.3 13 Sur 23 Sur 0 -- -- 76
2019-05-09 01:00:00 18.5 5 Sudoeste 23 Sudoeste 0 -- -- 77
2019-05-09 00:00:00 17.8 14 Sudoeste 28 Sudoeste 0 -- -- 84
2019-05-08 23:00:00 17.7 20 Sudoeste 32 Sudoeste 0 -- -- 86
2019-05-08 22:00:00 17.5 21 Sudoeste 28 Sudoeste 0 -- -- 88
2019-05-08 21:00:00 17.6 20 Sudoeste 30 Sur 0 -- -- 86
2019-05-08 20:00:00 19.2 19 Sudoeste 39 Sudoeste 0 -- -- 75
2019-05-08 19:00:00 20.3 25 Sudoeste 40 Sudoeste 0 -- -- 73
2019-05-08 18:00:00 20.7 26 Sudoeste 42 Sudoeste 0 -- -- 73
2019-05-08 17:00:00 23.5 26 Sudoeste 40 Sudoeste 0 -- -- 61
2019-05-08 16:00:00 22.6 21 Sudoeste 36 Sudoeste 0 -- -- 65
2019-05-08 15:00:00 22 22 Oeste 35 Oeste 0 -- -- 69
2019-05-08 14:00:00 22 26 Sudoeste 40 Sudoeste 0 -- -- 66
2019-05-08 13:00:00 21.3 26 Sudoeste 41 Sudoeste 0 -- -- 68
2019-05-08 12:00:00 20.5 27 Sudoeste 38 Sur 0 -- -- 70
2019-05-08 11:00:00 19.3 27 Sudoeste 38 Sudoeste 0 -- -- 75
2019-05-08 10:00:00 17.7 23 Sudoeste 36 Sudoeste 0 -- -- 81
2019-05-08 09:00:00 16.8 21 Sudoeste 34 Sudoeste 0 -- -- 84
2019-05-08 08:00:00 15.9 16 Sudoeste 24 Oeste 0 -- -- 86
2019-05-08 07:00:00 15.3 11 Oeste 21 Sudoeste 0 -- -- 87
2019-05-08 06:00:00 14.8 15 Sudoeste 24 Sudoeste 0 -- -- 90
2019-05-08 05:00:00 14.3 9 Sudoeste 13 Oeste 0 -- -- 88
2019-05-08 04:00:00 15 9 Oeste 13 Sudoeste 0 -- -- 87
2019-05-08 03:00:00 15.1 9 Oeste 14 Oeste 0 -- -- 88
2019-05-08 02:00:00 14.7 7 Oeste 12 Oeste 0 -- -- 90
2019-05-08 01:00:00 14.3 6 Oeste 16 Oeste 0 -- -- 88
2019-05-08 00:00:00 14.3 6 Oeste 12 Oeste 0 -- -- 86
2019-05-07 23:00:00 14.8 7 Oeste 14 Sudoeste 0 -- -- 83
2019-05-07 22:00:00 15.3 8 Sudoeste 15 Sudoeste 0 -- -- 79
2019-05-07 21:00:00 16.3 9 Sudoeste 19 Sudoeste 0 -- -- 72
2019-05-07 20:00:00 18.3 13 Sur 22 Sur 0 -- -- 62
2019-05-07 19:00:00 20.2 17 Sur 26 Sudoeste 0 -- -- 57
2019-05-07 18:00:00 21.3 17 Sur 27 Sur 0 -- -- 50
2019-05-07 17:00:00 22.2 15 Sudoeste 27 Sudoeste 0 -- -- 46
2019-05-07 16:00:00 22.4 16 Sudoeste 27 Sudoeste 0 -- -- 44
2019-05-07 15:00:00 22.6 14 Sudoeste 27 Sur 0 -- -- 42
2019-05-07 14:00:00 22 17 Sudoeste 28 Sur 0 -- -- 41
2019-05-07 13:00:00 21.4 14 Sur 27 Sudoeste 0 -- -- 46
2019-05-07 12:00:00 20.4 13 Sudoeste 24 Sur 0 -- -- 47
2019-05-07 11:00:00 18.7 14 Sudoeste 21 Sudoeste 0 -- -- 59
2019-05-07 10:00:00 17.2 10 Oeste 19 Sudoeste 0 -- -- 71
2019-05-07 09:00:00 14.6 5 Oeste 9 Oeste 0 -- -- 94
2019-05-07 08:00:00 11.2 3 Oeste 5 Sudoeste 0 -- -- 95
2019-05-07 07:00:00 8.8 0 Calma 5 Sur 0 -- -- 94
2019-05-07 06:00:00 8.9 4 Noroeste 6 Oeste 0 -- -- 94
2019-05-07 05:00:00 8.5 5 Oeste 6 Oeste 0 -- -- 93
2019-05-07 04:00:00 9 2 Oeste 5 Sudoeste 0 -- -- 92
2019-05-07 03:00:00 9.9 0 Calma 6 Sudoeste 0 -- -- 91
2019-05-07 02:00:00 10.1 4 Sudoeste 8 Sur 0 -- -- 90
2019-05-07 01:00:00 11.5 8 Sudoeste 10 Oeste 0 -- -- 88
2019-05-07 00:00:00 12.2 6 Oeste 12 Sudoeste 0 -- -- 87
2019-05-06 23:00:00 12.9 9 Sudoeste 14 Sudoeste 0 -- -- 85
2019-05-06 22:00:00 13.9 7 Sudoeste 16 Sudoeste 0 -- -- 80
2019-05-06 21:00:00 14.9 10 Sudoeste 23 Oeste 0 -- -- 77
2019-05-06 20:00:00 16.4 14 Oeste 25 Sudoeste 0 -- -- 70
2019-05-06 19:00:00 18.2 14 Sudoeste 25 Sur 0 -- -- 63
2019-05-06 18:00:00 19.2 18 Sudoeste 37 Sur 0 -- -- 58
2019-05-06 17:00:00 19.6 17 Sudoeste 28 Oeste 0 -- -- 55
2019-05-06 16:00:00 18 12 Oeste 22 Sudoeste 0 -- -- 57
2019-05-06 15:00:00 18.5 10 Este 28 Este 0 -- -- 51
2019-05-06 14:00:00 20.1 11 Sudoeste 24 Oeste 0 -- -- 44
2019-05-06 13:00:00 19 8 Sur 22 Sudoeste 0 -- -- 46
2019-05-06 12:00:00 17.7 7 Sudeste 14 Sur 0 -- -- 50
2019-05-06 11:00:00 16.2 6 Este 13 Este 0 -- -- 56
2019-05-06 10:00:00 14.9 5 Sudeste 15 Sudeste 0 -- -- 56
2019-05-06 09:00:00 13.3 4 Nordeste 7 Norte 0 -- -- 69
2019-05-06 08:00:00 10.4 2 Sur 7 Norte 0 -- -- 87
2019-05-06 07:00:00 9.1 3 Noroeste 5 Norte 0 -- -- 89
2019-05-06 06:00:00 8.7 0 Calma 4 Norte 0 -- -- 90
2019-05-06 05:00:00 8.5 0 Calma 9 Nordeste 0 -- -- 88
2019-05-06 04:00:00 9.1 8 Nordeste 15 Norte 0 -- -- 90
2019-05-06 03:00:00 7.9 5 Nordeste 13 Nordeste 0 -- -- 89
2019-05-06 02:00:00 8.6 3 Norte 10 Este 0 -- -- 87
2019-05-06 01:00:00 9.7 4 Noroeste 8 Norte 0 -- -- 84
2019-05-06 00:00:00 11.1 3 Sudoeste 17 Este 0 -- -- 78
2019-05-05 23:00:00 11.6 8 Oeste 20 Oeste 0 -- -- 73
2019-05-05 22:00:00 12.6 12 Oeste 21 Oeste 0 -- -- 69
2019-05-05 21:00:00 13.3 13 Sur 26 Sudoeste 0 -- -- 67
2019-05-05 20:00:00 15.2 20 Sudoeste 32 Sudoeste 0 -- -- 58
2019-05-05 19:00:00 16.7 21 Sudoeste 34 Sudoeste 0 -- -- 55
2019-05-05 18:00:00 18.6 18 Oeste 33 Oeste 0 -- -- 39
2019-05-05 17:00:00 19.1 17 Oeste 45 Sudoeste 0 -- -- 36
2019-05-05 16:00:00 17.6 24 Sudoeste 44 Sudoeste 0 -- -- 51
2019-05-05 15:00:00 18.5 28 Sudoeste 39 Sudoeste 0 -- -- 47
2019-05-05 14:00:00 18.9 21 Sudoeste 33 Sudoeste 0 -- -- 41
2019-05-05 13:00:00 17.1 8 Sudeste 19 Sudeste 0 -- -- 48
2019-05-05 12:00:00 17 8 Nordeste 23 Nordeste 0 -- -- 47
2019-05-05 11:00:00 16.1 15 Nordeste 39 Este 0 -- -- 47
2019-05-05 10:00:00 15.1 17 Nordeste 38 Nordeste 0 -- -- 48
2019-05-05 09:00:00 13.5 23 Nordeste 37 Nordeste 0 -- -- 51
2019-05-05 08:00:00 12.5 14 Nordeste 32 Nordeste 0 -- -- 57
2019-05-05 07:00:00 12.1 21 Nordeste 42 Nordeste 0 -- -- 63
2019-05-05 06:00:00 12.5 7 Sudeste 27 Noroeste 0 -- -- 69
2019-05-05 05:00:00 14 13 Noroeste 29 Noroeste 0 -- -- 62
2019-05-05 04:00:00 13.5 14 Sudoeste 27 Sudoeste 0 -- -- 83
2019-05-05 03:00:00 12.4 12 Oeste 18 Oeste 0 -- -- 87
2019-05-05 02:00:00 12.7 9 Oeste 21 Oeste 0 -- -- 85
2019-05-05 01:00:00 12.6 11 Oeste 18 Sudoeste 0 -- -- 84
2019-05-05 00:00:00 12.4 8 Oeste 16 Oeste 0 -- -- 82
2019-05-04 23:00:00 12.8 9 Oeste 15 Oeste 0 -- -- 77
2019-05-04 22:00:00 13.3 5 Sudoeste 19 Sudoeste 0 -- -- 70
2019-05-04 21:00:00 14.7 13 Sudoeste 30 Sudoeste 0 -- -- 60
2019-05-04 20:00:00 17.3 19 Sudoeste 29 Oeste 0 -- -- 45
2019-05-04 19:00:00 18.4 17 Oeste 27 Oeste 0 -- -- 46
2019-05-04 18:00:00 19.5 14 Noroeste 30 Noroeste 0 -- -- 43
2019-05-04 17:00:00 19.3 19 Noroeste 28 Noroeste 0 -- -- 45
2019-05-04 16:00:00 19.8 15 Noroeste 27 Oeste 0 -- -- 42
2019-05-04 15:00:00 18.9 8 Sudoeste 22 Norte 0 -- -- 47
2019-05-04 14:00:00 18.7 7 Noroeste 20 Oeste 0 -- -- 50
2019-05-04 13:00:00 19.7 4 Este 30 Nordeste 0 -- -- 41
2019-05-04 12:00:00 18.4 17 Nordeste 30 Nordeste 0 -- -- 45
2019-05-04 11:00:00 17.6 9 Nordeste 25 Norte 0 -- -- 50
2019-05-04 10:00:00 16.2 4 Nordeste 13 Sudoeste 0 -- -- 63
2019-05-04 09:00:00 13.4 7 Sudoeste 13 Sudoeste 0 -- -- 87
2019-05-04 08:00:00 10.7 5 Noroeste 9 Noroeste 0.2 -- -- 95
2019-05-04 07:00:00 8.9 4 Noroeste 8 Norte 0 -- -- 94
2019-05-04 06:00:00 9.4 6 Norte 11 Norte 0 -- -- 94
2019-05-04 05:00:00 10.5 5 Norte 9 Nordeste 0 -- -- 94
2019-05-04 04:00:00 11.2 4 Nordeste 19 Este 0 -- -- 95
2019-05-04 03:00:00 11.7 11 Nordeste 18 Nordeste 2 -- -- 95
2019-05-04 02:00:00 12.3 3 Sudeste 9 Este 2.4 -- -- 95
2019-05-04 01:00:00 12.4 7 Este 12 Este 0 -- -- 95
2019-05-04 00:00:00 12.4 7 Este 16 Este 0 -- -- 95
2019-05-03 23:00:00 12.5 8 Este 14 Este 0.6 -- -- 95
2019-05-03 22:00:00 12.7 8 Este 17 Nordeste 1.4 -- -- 95
2019-05-03 21:00:00 13 4 Nordeste 6 Norte 2 -- -- 94
2019-05-03 20:00:00 12.9 5 Norte 15 Norte 4.2 -- -- 94
2019-05-03 19:00:00 13.3 6 Norte 17 Norte 4.4 -- -- 93
2019-05-03 18:00:00 14.2 7 Nordeste 19 Nordeste 0 -- -- 88
2019-05-03 17:00:00 15.1 12 Nordeste 21 Nordeste 0 -- -- 80
2019-05-03 16:00:00 16.6 12 Nordeste 24 Nordeste 0 -- -- 67
2019-05-03 15:00:00 18.5 13 Nordeste 23 Nordeste 0 -- -- 56
2019-05-03 14:00:00 20.7 9 Este 22 Este 0 -- -- 51
2019-05-03 13:00:00 20.9 9 Este 25 Este 0 -- -- 52
2019-05-03 12:00:00 20 7 Este 25 Este 0 -- -- 53
2019-05-03 11:00:00 19.6 14 Este 24 Este 0 -- -- 49
2019-05-03 10:00:00 17.6 10 Este 17 Este 0 -- -- 61
2019-05-03 09:00:00 11.3 2 Este 5 Sur 0 -- -- 90
2019-05-03 08:00:00 8.5 0 Calma 11 Noroeste 0 -- -- 93
2019-05-03 07:00:00 7.1 9 Noroeste 11 Norte 0 -- -- 94
2019-05-03 06:00:00 7.5 4 Sudoeste 8 Sudoeste 0 -- -- 92
2019-05-03 05:00:00 7.8 0 Calma 5 Noroeste 0 -- -- 91
2019-05-03 04:00:00 8.3 3 Noroeste 6 Sur 0 -- -- 90
2019-05-03 03:00:00 9.7 0 Calma 8 Norte 0 -- -- 90
2019-05-03 02:00:00 10 7 Norte 10 Norte 0 -- -- 90
2019-05-03 01:00:00 10.6 2 Este 4 Sudeste 0 -- -- 88
2019-05-03 00:00:00 11.6 5 Norte 8 Norte 0 -- -- 87
2019-05-02 23:00:00 12.3 5 Norte 9 Este 0 -- -- 82
2019-05-02 22:00:00 14.1 6 Este 12 Nordeste 0 -- -- 75
2019-05-02 21:00:00 16.1 6 Nordeste 17 Nordeste 0 -- -- 72
2019-05-02 20:00:00 18.4 9 Nordeste 19 Este 0 -- -- 64
2019-05-02 19:00:00 19.5 10 Nordeste 24 Nordeste 0 -- -- 59
2019-05-02 18:00:00 19.4 13 Nordeste 23 Este 0 -- -- 52
2019-05-02 17:00:00 18.9 12 Este 19 Este 0 -- -- 61
2019-05-02 16:00:00 19.8 11 Este 22 Este 0 -- -- 63
2019-05-02 15:00:00 20.3 8 Este 20 Este 0 -- -- 58
2019-05-02 14:00:00 19.2 8 Nordeste 18 Este 0 -- -- 60
2019-05-02 13:00:00 19.2 6 Nordeste 16 Nordeste 0 -- -- 59
2019-05-02 12:00:00 18 8 Nordeste 14 Este 0 -- -- 64
2019-05-02 11:00:00 18 6 Este 13 Nordeste 0 -- -- 59
2019-05-02 10:00:00 17.3 5 Este 10 Este 0 -- -- 62
2019-05-02 09:00:00 16 3 Este 5 Este 0 -- -- 62
2019-05-02 08:00:00 11.8 2 Oeste 5 Sur 0 -- -- 79
2019-05-02 07:00:00 10.6 0 Calma 5 Noroeste 0 -- -- 82
2019-05-02 06:00:00 10 3 Noroeste 5 Oeste 0 -- -- 82
2019-05-02 05:00:00 9.2 3 Sur 5 Sudeste 0 -- -- 83
2019-05-02 04:00:00 9.3 0 Calma 4 Noroeste 0 -- -- 82
2019-05-02 03:00:00 9.6 3 Noroeste 5 Oeste 0 -- -- 79
2019-05-02 02:00:00 9.5 3 Noroeste 6 Sur 0 -- -- 82
2019-05-02 01:00:00 10.8 3 Noroeste 7 Noroeste 0 -- -- 78
2019-05-02 00:00:00 12 2 Oeste 5 Noroeste 0 -- -- 77
2019-05-01 23:00:00 13.4 3 Oeste 5 Oeste 0 -- -- 75
2019-05-01 22:00:00 15.2 4 Oeste 12 Oeste 0 -- -- 70
2019-05-01 21:00:00 16.4 9 Oeste 17 Oeste 0 -- -- 65
2019-05-01 20:00:00 18.5 12 Oeste 24 Oeste 0 -- -- 50
2019-05-01 19:00:00 20.9 14 Oeste 24 Oeste 0 -- -- 42
2019-05-01 18:00:00 21.9 13 Oeste 28 Oeste 0 -- -- 40
2019-05-01 17:00:00 22.1 18 Oeste 29 Sudoeste 0 -- -- 38
2019-05-01 16:00:00 22.6 19 Sudoeste 33 Sudoeste 0 -- -- 36
2019-05-01 15:00:00 23.2 13 Oeste 29 Oeste 0 -- -- 33
2019-05-01 14:00:00 22.6 14 Sudoeste 25 Oeste 0 -- -- 35
2019-05-01 13:00:00 21.9 10 Sudoeste 20 Sudoeste 0 -- -- 33
2019-05-01 12:00:00 20.9 12 Sudoeste 21 Sudoeste 0 -- -- 37
2019-05-01 11:00:00 19.4 10 Sudoeste 19 Sudoeste 0 -- -- 40
2019-05-01 10:00:00 17.6 11 Sudoeste 17 Sudoeste 0 -- -- 48
2019-05-01 09:00:00 14.1 4 Sudoeste 8 Sur 0 -- -- 69
2019-05-01 08:00:00 8.1 3 Oeste 5 Noroeste 0 -- -- 93
2019-05-01 07:00:00 5.1 2 Oeste 4 Oeste 0 -- -- 89
2019-05-01 06:00:00 5.7 4 Sudoeste 6 Sudoeste 0 -- -- 89
2019-05-01 05:00:00 6 0 Calma 4 Norte 0 -- -- 89
2019-05-01 04:00:00 6.6 2 Oeste 6 Oeste 0 -- -- 89
2019-05-01 03:00:00 7.5 4 Oeste 6 Oeste 0 -- -- 90
2019-05-01 02:00:00 8.1 4 Sudoeste 8 Sudoeste 0 -- -- 89
2019-05-01 01:00:00 8.7 4 Sudoeste 8 Sudoeste 0 -- -- 87
2019-05-01 00:00:00 10.2 4 Noroeste 7 Oeste 0 -- -- 85
2019-04-30 23:00:00 12 4 Oeste 8 Oeste 0 -- -- 80
2019-04-30 22:00:00 13 6 Oeste 13 Sudoeste 0 -- -- 77
2019-04-30 21:00:00 14.4 10 Sudoeste 18 Sudoeste 0 -- -- 70
2019-04-30 20:00:00 16.7 14 Sudoeste 22 Sudoeste 0 -- -- 61
2019-04-30 19:00:00 18.3 15 Sudoeste 26 Sudoeste 0 -- -- 51
2019-04-30 18:00:00 19.6 18 Sudoeste 27 Oeste 0 -- -- 46
2019-04-30 17:00:00 20.2 18 Oeste 30 Oeste 0 -- -- 49
2019-04-30 16:00:00 20.5 18 Oeste 30 Oeste 0 -- -- 49
2019-04-30 15:00:00 19.7 18 Sudoeste 30 Sudoeste 0 -- -- 56
2019-04-30 14:00:00 19.9 15 Sudoeste 32 Sudoeste 0 -- -- 53
2019-04-30 13:00:00 20.6 10 Sur 18 Sur 0 -- -- 38
2019-04-30 12:00:00 19 8 Sudeste 19 Sudeste 0 -- -- 56
2019-04-30 11:00:00 18.1 10 Nordeste 22 Este 0 -- -- 64
2019-04-30 10:00:00 16.2 10 Este 21 Este 0 -- -- 73
2019-04-30 09:00:00 13.7 4 Sudeste 8 Este 0 -- -- 86
2019-04-30 08:00:00 9.4 0 Calma 6 Sudoeste 0 -- -- 95
2019-04-30 07:00:00 7.5 2 Sur 6 Sur 0 -- -- 93
2019-04-30 06:00:00 8.3 5 Sudoeste 10 Sudoeste 0 -- -- 93
2019-04-30 05:00:00 8.3 6 Oeste 8 Oeste 0 -- -- 93
2019-04-30 04:00:00 7.8 4 Noroeste 6 Noroeste 0 -- -- 91
2019-04-30 03:00:00 8.6 4 Oeste 6 Oeste 0 -- -- 90
2019-04-30 02:00:00 9 0 Calma 4 Sudoeste 0 -- -- 88
2019-04-30 01:00:00 10.3 2 Oeste 10 Sudoeste 0 -- -- 87
2019-04-30 00:00:00 11.5 6 Sudoeste 8 Oeste 0 -- -- 84
2019-04-29 23:00:00 12.6 6 Oeste 8 Oeste 0 -- -- 80
2019-04-29 22:00:00 13.9 5 Oeste 11 Sudoeste 0 -- -- 76
2019-04-29 21:00:00 14.5 8 Sudoeste 19 Sudoeste 0 -- -- 71
2019-04-29 20:00:00 15.9 13 Sudoeste 20 Oeste 0 -- -- 65
2019-04-29 19:00:00 17.5 6 Sudeste 13 Este 0 -- -- 59
2019-04-29 18:00:00 17.9 6 Nordeste 20 Nordeste 0 -- -- 59
2019-04-29 17:00:00 18.2 13 Nordeste 21 Nordeste 0 -- -- 58
2019-04-29 16:00:00 18.9 7 Sudoeste 22 Oeste 0 -- -- 54
2019-04-29 15:00:00 20.3 13 Oeste 27 Oeste 0 -- -- 50
2019-04-29 14:00:00 19.6 16 Sudoeste 24 Sudoeste 0 -- -- 53
2019-04-29 13:00:00 18.3 13 Sudoeste 23 Sudoeste 0 -- -- 55
2019-04-29 12:00:00 18 8 Sur 20 Sur 0 -- -- 54
2019-04-29 11:00:00 16.8 4 Sudoeste 13 Sudeste 0 -- -- 59
2019-04-29 10:00:00 16.8 6 Este 10 Este 0 -- -- 60
2019-04-29 09:00:00 14.8 0 Calma 7 Oeste 0 -- -- 80
2019-04-29 08:00:00 11.8 0 Calma 5 Noroeste 0 -- -- 92
2019-04-29 07:00:00 11 3 Nordeste 5 Nordeste 0 -- -- 89
2019-04-29 06:00:00 11.5 2 Norte 5 Noroeste 0 -- -- 89
2019-04-29 05:00:00 11.9 2 Noroeste 4 Noroeste 0 -- -- 85
2019-04-29 04:00:00 13.2 4 Este 8 Nordeste 0 -- -- 83
2019-04-29 03:00:00 13.4 0 Calma 8 Este 0 -- -- 83
2019-04-29 02:00:00 13.5 4 Nordeste 8 Este 0 -- -- 83
2019-04-29 01:00:00 13.6 3 Este 12 Este 0 -- -- 82
2019-04-29 00:00:00 13.9 7 Este 13 Este 0 -- -- 82
2019-04-28 23:00:00 14.2 9 Sudeste 15 Sudeste 0 -- -- 80
2019-04-28 22:00:00 15 8 Sudeste 13 Sudoeste 0 -- -- 77
2019-04-28 21:00:00 15.6 10 Oeste 17 Sudoeste 0 -- -- 73
2019-04-28 20:00:00 16.8 11 Sudoeste 17 Oeste 0 -- -- 69
2019-04-28 19:00:00 17 9 Sudeste 18 Este 0 -- -- 69
2019-04-28 18:00:00 17.1 9 Sudeste 19 Sudeste 0 -- -- 69
2019-04-28 17:00:00 17.4 11 Sudeste 20 Sudeste 0 -- -- 68
2019-04-28 16:00:00 18 10 Sudeste 21 Sudeste 0 -- -- 66
2019-04-28 15:00:00 19.4 16 Sudeste 26 Este 0 -- -- 62
2019-04-28 14:00:00 20.3 14 Nordeste 28 Este 0 -- -- 59
2019-04-28 13:00:00 21.6 11 Este 24 Este 0 -- -- 52
2019-04-28 12:00:00 20 5 Este 21 Sudeste 0 -- -- 51
2019-04-28 11:00:00 18.9 8 Nordeste 17 Nordeste 0 -- -- 57
2019-04-28 10:00:00 17.6 10 Este 19 Este 0 -- -- 64
2019-04-28 09:00:00 14 3 Este 5 Nordeste 0 -- -- 74
2019-04-28 08:00:00 8.5 0 Calma 9 Noroeste 0 -- -- 92
2019-04-28 07:00:00 5.8 4 Oeste 9 Noroeste 0 -- -- 90
2019-04-28 06:00:00 6.5 3 Sudoeste 6 Noroeste 0 -- -- 89
2019-04-28 05:00:00 7.3 3 Noroeste 5 Noroeste 0 -- -- 89
2019-04-28 04:00:00 7.8 0 Calma 5 Sudoeste 0 -- -- 87
2019-04-28 03:00:00 8.4 3 Sudoeste 4 Sudoeste 0 -- -- 86
2019-04-28 02:00:00 9.3 4 Norte 5 Norte 0 -- -- 85
2019-04-28 01:00:00 10.2 0 Calma 6 Noroeste 0 -- -- 81
2019-04-28 00:00:00 11 6 Noroeste 8 Oeste 0 -- -- 81
2019-04-27 23:00:00 12.2 2 Norte 7 Nordeste 0 -- -- 73
2019-04-27 22:00:00 14.1 5 Nordeste 9 Nordeste 0 -- -- 67
2019-04-27 21:00:00 16.6 6 Este 16 Este 0 -- -- 58
2019-04-27 20:00:00 20.3 8 Este 24 Norte 0 -- -- 48
2019-04-27 19:00:00 21.6 8 Nordeste 29 Norte 0 -- -- 43
2019-04-27 18:00:00 22.3 12 Nordeste 29 Nordeste 0 -- -- 42
2019-04-27 17:00:00 23 15 Noroeste 32 Sudoeste 0 -- -- 38
2019-04-27 16:00:00 23 8 Sudoeste 41 Sur 0 -- -- 33
2019-04-27 15:00:00 22.7 13 Oeste 34 Sudoeste 0 -- -- 34
2019-04-27 14:00:00 22.2 15 Sudoeste 29 Sudoeste 0 -- -- 37
2019-04-27 13:00:00 21.5 10 Sudoeste 21 Oeste 0 -- -- 40
2019-04-27 12:00:00 20.6 6 Noroeste 13 Sudoeste 0 -- -- 41
2019-04-27 11:00:00 19.3 5 Este 10 Este 0 -- -- 50
2019-04-27 10:00:00 17.2 6 Este 10 Este 0 -- -- 63
2019-04-27 09:00:00 13.7 0 Calma 3 Sur 0 -- -- 77
2019-04-27 08:00:00 8.2 0 Calma 6 Noroeste 0 -- -- 93
2019-04-27 07:00:00 5.4 6 Oeste 7 Oeste 0 -- -- 90
2019-04-27 06:00:00 5.8 0 Calma 5 Sudoeste 0 -- -- 89
2019-04-27 05:00:00 6.3 3 Sudoeste 9 Noroeste 0 -- -- 87
2019-04-27 04:00:00 7.2 7 Noroeste 9 Noroeste 0 -- -- 88
2019-04-27 03:00:00 7 3 Norte 8 Noroeste 0 -- -- 84
2019-04-27 02:00:00 8.2 5 Nordeste 6 Nordeste 0 -- -- 82
2019-04-27 01:00:00 8.8 2 Noroeste 6 Sudoeste 0 -- -- 80
2019-04-27 00:00:00 10.2 3 Noroeste 9 Noroeste 0 -- -- 72
2019-04-26 23:00:00 11.4 8 Oeste 9 Noroeste 0 -- -- 69
2019-04-26 22:00:00 13.4 3 Este 10 Noroeste 0 -- -- 58
2019-04-26 21:00:00 16.5 7 Noroeste 13 Noroeste 0 -- -- 45
2019-04-26 20:00:00 19.8 8 Noroeste 20 Noroeste 0 -- -- 37
2019-04-26 19:00:00 20.6 8 Noroeste 23 Noroeste 0 -- -- 33
2019-04-26 18:00:00 20.7 12 Noroeste 26 Noroeste 0 -- -- 33
2019-04-26 17:00:00 20.4 21 Noroeste 33 Noroeste 0 -- -- 33
2019-04-26 16:00:00 20.7 19 Norte 28 Norte 0 -- -- 32
2019-04-26 15:00:00 20.6 17 Noroeste 30 Norte 0 -- -- 35
2019-04-26 14:00:00 20.3 17 Noroeste 30 Oeste 0 -- -- 36
2019-04-26 13:00:00 19.7 11 Noroeste 28 Noroeste 0 -- -- 38
2019-04-26 12:00:00 18.8 19 Noroeste 28 Noroeste 0 -- -- 43
2019-04-26 11:00:00 18 18 Noroeste 28 Noroeste 0 -- -- 48
2019-04-26 10:00:00 17.5 13 Noroeste 27 Norte 0 -- -- 50
2019-04-26 09:00:00 16.8 2 Nordeste 13 Noroeste 0 -- -- 49
2019-04-26 08:00:00 13.3 6 Noroeste 16 Oeste 0 -- -- 71
2019-04-26 07:00:00 11.5 11 Oeste 19 Oeste 0 -- -- 76
2019-04-26 06:00:00 11.1 10 Oeste 16 Sudoeste 0 -- -- 78
2019-04-26 05:00:00 12.1 12 Oeste 16 Sudoeste 0 -- -- 71
2019-04-26 04:00:00 13.8 9 Oeste 23 Oeste 0 -- -- 66
2019-04-26 03:00:00 14.2 12 Oeste 22 Sudoeste 0 -- -- 74
2019-04-26 02:00:00 13.9 16 Sudoeste 24 Sudoeste 0 -- -- 89
2019-04-26 01:00:00 13.6 3 Oeste 17 Sudoeste 0 -- -- 93
2019-04-26 00:00:00 13.9 9 Sudoeste 22 Sudoeste 0 -- -- 93